createdAt,value
2019-04-23T00:00:29.397Z,10.07
2019-04-23T00:02:58.493Z,9.90
2019-04-23T00:08:07.358Z,8.13
2019-04-23T00:10:30.348Z,7.80
2019-04-23T00:13:12.982Z,8.80
2019-04-23T00:15:25.229Z,11.90
2019-04-23T00:18:00.463Z,7.73
2019-04-23T00:20:25.734Z,7.97
2019-04-23T00:23:06.130Z,8.00
2019-04-23T00:28:16.503Z,9.40
2019-04-23T00:33:12.249Z,8.07
2019-04-23T00:35:41.717Z,7.90
2019-04-23T00:38:11.997Z,7.97
2019-04-23T00:40:40.849Z,10.00
2019-04-23T00:43:08.952Z,7.50
2019-04-23T00:45:41.253Z,9.53
2019-04-23T00:48:02.236Z,10.73
2019-04-23T00:50:38.533Z,10.50
2019-04-23T00:53:17.496Z,11.50
2019-04-23T00:55:30.771Z,7.40
2019-04-23T00:58:10.396Z,9.03
2019-04-23T01:00:35.400Z,8.90
2019-04-23T01:03:10.279Z,9.27
2019-04-23T01:05:30.690Z,6.83
2019-04-23T01:07:58.254Z,8.17
2019-04-23T01:10:27.767Z,7.43
2019-04-23T01:12:59.782Z,9.33
2019-04-23T01:15:37.233Z,9.03
2019-04-23T01:18:06.645Z,9.03
2019-04-23T01:20:38.765Z,8.00
2019-04-23T01:22:42.552Z,10.83
2019-04-23T01:25:21.151Z,9.20
2019-04-23T01:28:23.524Z,8.90
2019-04-23T01:30:40.860Z,8.23
2019-04-23T01:33:10.981Z,12.40
2019-04-23T01:35:43.170Z,11.03
2019-04-23T01:38:11.221Z,8.60
2019-04-23T01:40:39.396Z,11.20
2019-04-23T01:43:04.273Z,9.60
2019-04-23T01:45:30.763Z,8.57
2019-04-23T01:48:18.245Z,10.40
2019-04-23T01:50:37.792Z,10.33
2019-04-23T01:53:06.913Z,8.47
2019-04-23T01:55:36.260Z,13.90
2019-04-23T01:58:23.730Z,10.40
2019-04-23T02:00:41.290Z,8.13
2019-04-23T02:05:39.692Z,9.93
2019-04-23T02:08:08.081Z,8.60
2019-04-23T02:15:37.877Z,9.60
2019-04-23T02:18:08.001Z,8.50
2019-04-23T02:20:39.802Z,8.27
2019-04-23T02:23:11.355Z,9.20
2019-04-23T02:28:09.161Z,12.13
2019-04-23T02:33:19.392Z,8.80
2019-04-23T02:35:50.538Z,9.27
2019-04-23T02:38:19.228Z,8.60
2019-04-23T02:40:59.362Z,11.03
2019-04-23T02:45:50.338Z,9.90
2019-04-23T02:48:27.123Z,8.33
2019-04-23T02:53:14.694Z,13.57
2019-04-23T02:58:11.012Z,9.27
2019-04-23T03:00:46.416Z,8.40
2019-04-23T03:03:06.091Z,9.03
2019-04-23T03:05:46.015Z,10.07
2019-04-23T03:07:59.782Z,7.90
2019-04-23T03:18:34.463Z,11.57
2019-04-23T03:21:15.496Z,8.97
2019-04-23T03:25:59.490Z,14.27
2019-04-23T03:28:37.855Z,9.20
2019-04-23T03:38:45.658Z,10.53
2019-04-23T03:41:02.478Z,9.80
2019-04-23T03:43:26.023Z,9.20
2019-04-23T03:48:25.796Z,10.53
2019-04-23T03:53:25.673Z,12.53
2019-04-23T03:58:20.836Z,10.53
2019-04-23T04:03:57.979Z,11.07
2019-04-23T04:08:22.285Z,11.80
2019-04-23T04:11:09.382Z,14.63
2019-04-23T04:13:15.873Z,17.10
2019-04-23T04:23:16.708Z,11.63
2019-04-23T04:25:39.329Z,12.20
2019-04-23T04:28:12.061Z,16.67
2019-04-23T04:30:49.064Z,13.10
2019-04-23T04:33:29.810Z,12.50
2019-04-23T04:35:47.336Z,13.00
2019-04-23T04:40:54.790Z,12.30
2019-04-23T04:46:05.714Z,13.13
2019-04-23T04:48:08.730Z,12.10
2019-04-23T04:50:50.661Z,14.33
2019-04-23T04:53:31.329Z,16.40
2019-04-23T04:55:45.196Z,11.60
2019-04-23T04:58:19.086Z,13.20
2019-04-23T05:00:54.249Z,19.33
2019-04-23T05:08:17.313Z,17.47
2019-04-23T05:10:43.129Z,13.00
2019-04-23T05:13:23.450Z,16.57
2019-04-23T05:15:39.433Z,13.43
2019-04-23T05:20:52.969Z,14.47
2019-04-23T05:23:19.391Z,16.23
2019-04-23T05:25:44.954Z,14.10
2019-04-23T05:30:50.089Z,13.83
2019-04-23T05:33:17.133Z,14.80
2019-04-23T05:36:04.567Z,13.20
2019-04-23T05:38:26.734Z,20.97
2019-04-23T05:43:08.087Z,14.47
2019-04-23T05:45:38.194Z,15.33
2019-04-23T05:50:42.496Z,17.40
2019-04-23T05:53:10.180Z,16.20
2019-04-23T05:55:36.807Z,20.53
2019-04-23T05:58:03.695Z,16.10
2019-04-23T06:00:43.209Z,15.40
2019-04-23T06:05:42.966Z,14.63
2019-04-23T06:08:05.627Z,16.90
2019-04-23T06:10:36.398Z,20.40
2019-04-23T06:13:04.777Z,15.60
2019-04-23T06:18:08.047Z,13.30
2019-04-23T06:20:42.334Z,13.63
2019-04-23T06:23:05.718Z,15.80
2019-04-23T06:25:49.483Z,16.90
2019-04-23T06:28:03.482Z,15.80
2019-04-23T06:30:52.647Z,22.57
2019-04-23T06:33:04.342Z,18.53
2019-04-23T06:35:34.401Z,16.77
2019-04-23T06:38:26.187Z,16.83
2019-04-23T06:40:26.620Z,17.93
2019-04-23T06:45:59.071Z,20.03
2019-04-23T06:48:19.848Z,17.73
2019-04-23T06:50:52.656Z,30.57
2019-04-23T06:53:09.154Z,17.70
2019-04-23T06:55:44.677Z,17.77
2019-04-23T06:58:17.063Z,18.57
2019-04-23T07:00:44.637Z,18.60
2019-04-23T07:03:17.919Z,19.40
2019-04-23T07:06:03.450Z,18.63
2019-04-23T07:08:38.520Z,19.00
2019-04-23T07:10:58.693Z,18.40
2019-04-23T07:13:31.248Z,18.20
2019-04-23T07:18:24.506Z,19.67
2019-04-23T07:20:50.611Z,21.43
2019-04-23T07:23:19.663Z,20.60
2019-04-23T07:25:53.977Z,19.83
2019-04-23T07:28:18.009Z,19.30
2019-04-23T07:30:56.036Z,21.90
2019-04-23T07:33:24.266Z,20.60
2019-04-23T07:35:47.922Z,19.73
2019-04-23T07:38:42.465Z,20.07
2019-04-23T07:41:18.332Z,26.80
2019-04-23T07:44:10.497Z,26.90
2019-04-23T07:46:33.785Z,21.67
2019-04-23T07:48:56.433Z,20.50
2019-04-23T07:51:29.333Z,23.87
2019-04-23T07:54:01.341Z,19.13
2019-04-23T07:56:45.628Z,20.57
2019-04-23T07:58:52.546Z,21.33
2019-04-23T08:01:17.512Z,22.70
2019-04-23T08:06:19.487Z,21.67
2019-04-23T08:08:48.784Z,21.80
2019-04-23T08:13:53.365Z,23.03
2019-04-23T08:21:14.679Z,24.87
2019-04-23T08:24:06.488Z,26.77
2019-04-23T08:26:52.050Z,22.73
2019-04-23T08:29:15.496Z,25.73
2019-04-23T08:32:05.402Z,23.23
2019-04-23T08:34:23.905Z,24.13
2019-04-23T08:39:15.867Z,25.40
2019-04-23T08:41:59.676Z,23.47
2019-04-23T08:44:28.849Z,25.30
2019-04-23T08:49:36.472Z,24.63
2019-04-23T08:52:00.587Z,23.13
2019-04-23T08:54:39.713Z,25.83
2019-04-23T08:59:34.467Z,25.50
2019-04-23T09:02:07.205Z,26.30
2019-04-23T09:04:23.642Z,26.90
2019-04-23T09:06:53.412Z,25.17
2019-04-23T09:09:23.183Z,29.67
2019-04-23T09:14:04.594Z,24.97
2019-04-23T09:16:51.421Z,27.20
2019-04-23T09:19:44.200Z,27.30
2019-04-23T09:22:10.957Z,27.50
2019-04-23T09:24:13.350Z,29.03
2019-04-23T09:26:41.470Z,26.20
2019-04-23T09:29:11.917Z,28.20
2019-04-23T09:34:52.748Z,27.33
2019-04-23T09:37:34.691Z,36.20
2019-04-23T09:40:18.839Z,29.63
2019-04-23T09:42:54.575Z,28.93
2019-04-23T09:45:35.063Z,29.10
2019-04-23T09:53:09.719Z,30.30
2019-04-23T09:55:35.794Z,28.57
2019-04-23T09:58:03.257Z,29.60
2019-04-23T10:00:38.062Z,30.17
2019-04-23T10:02:47.375Z,30.23
2019-04-23T10:05:12.972Z,32.40
2019-04-23T10:07:41.900Z,30.17
2019-04-23T10:09:57.363Z,29.37
2019-04-23T10:12:26.107Z,35.50
2019-04-23T10:15:04.798Z,31.60
2019-04-23T10:17:24.237Z,30.30
2019-04-23T10:19:52.996Z,30.73
2019-04-23T10:22:20.520Z,30.00
2019-04-23T10:24:48.919Z,30.97
2019-04-23T10:27:17.024Z,32.80
2019-04-23T10:29:45.761Z,33.03
2019-04-23T10:32:13.677Z,33.03
2019-04-23T10:34:55.240Z,30.90
2019-04-23T10:37:11.408Z,33.03
2019-04-23T10:39:42.698Z,30.50
2019-04-23T10:42:09.859Z,33.80
2019-04-23T10:44:40.759Z,35.03
2019-04-23T10:47:54.199Z,31.37
2019-04-23T10:53:21.470Z,30.97
2019-04-23T10:55:49.579Z,32.40
2019-04-23T10:58:08.644Z,31.40
2019-04-23T11:00:37.730Z,30.60
2019-04-23T11:03:21.659Z,31.83
2019-04-23T11:05:46.176Z,43.73
2019-04-23T11:08:08.031Z,33.70
2019-04-23T11:10:25.937Z,35.63
2019-04-23T11:13:02.545Z,35.87
2019-04-23T11:17:59.328Z,34.73
2019-04-23T11:20:34.099Z,32.83
2019-04-23T11:22:56.797Z,34.13
2019-04-23T11:28:05.691Z,40.70
2019-04-23T11:33:10.228Z,35.77
2019-04-23T11:38:34.820Z,35.40
2019-04-23T11:40:42.131Z,34.70
2019-04-23T11:43:13.140Z,32.73
2019-04-23T11:53:07.040Z,33.97
2019-04-23T11:58:16.654Z,35.20
2019-04-23T12:00:44.069Z,36.53
2019-04-23T12:03:17.327Z,38.03
2019-04-23T12:08:38.167Z,37.47
2019-04-23T12:11:35.786Z,37.03
2019-04-23T12:13:39.564Z,36.87
2019-04-23T12:16:00.932Z,37.13
2019-04-23T12:18:43.627Z,37.60
2019-04-23T12:20:57.162Z,37.77
2019-04-23T12:23:40.608Z,39.40
2019-04-23T12:26:03.125Z,37.13
2019-04-23T12:28:30.340Z,39.63
2019-04-23T12:35:51.945Z,39.97
2019-04-23T12:38:25.710Z,37.27
2019-04-23T12:43:23.178Z,39.23
2019-04-23T12:45:48.041Z,37.67
2019-04-23T12:48:36.520Z,42.83
2019-04-23T12:51:01.193Z,47.73
2019-04-23T12:53:27.319Z,45.87
2019-04-23T12:55:43.814Z,41.87
2019-04-23T12:58:20.163Z,40.33
2019-04-23T13:00:48.475Z,41.53
2019-04-23T13:03:16.745Z,43.33
2019-04-23T13:05:57.419Z,38.60
2019-04-23T13:15:40.544Z,43.83
2019-04-23T13:18:17.437Z,93.80
2019-04-23T13:20:47.884Z,62.30
2019-04-23T13:23:17.004Z,47.13
2019-04-23T13:25:55.819Z,45.40
2019-04-23T13:30:54.272Z,46.10
2019-04-23T13:33:32.000Z,48.43
2019-04-23T13:35:53.387Z,44.47
2019-04-23T13:40:44.127Z,43.57
2019-04-23T13:43:24.309Z,43.13
2019-04-23T13:48:19.965Z,47.60
2019-04-23T13:50:57.608Z,52.80
2019-04-23T13:53:18.585Z,45.77
2019-04-23T13:55:40.931Z,49.30
2019-04-23T13:58:15.227Z,46.53
2019-04-23T14:03:13.951Z,47.97
2019-04-23T14:05:41.197Z,45.63
2019-04-23T14:10:52.144Z,46.20
2019-04-23T14:13:31.195Z,44.63
2019-04-23T14:15:55.808Z,47.77
2019-04-23T14:20:38.388Z,45.93
2019-04-23T14:23:16.946Z,45.80
2019-04-23T14:25:56.022Z,46.30
2019-04-23T14:33:12.056Z,47.77
2019-04-23T14:38:22.134Z,44.40
2019-04-23T14:40:43.101Z,47.47
2019-04-23T14:45:52.690Z,44.27
2019-04-23T14:48:10.377Z,41.63
2019-04-23T14:50:42.634Z,44.90
2019-04-23T14:53:13.128Z,46.23
2019-04-23T14:55:56.861Z,46.10
2019-04-23T14:58:20.563Z,41.53
2019-04-23T15:03:27.130Z,44.00
2019-04-23T15:05:58.066Z,48.13
2019-04-23T15:08:25.016Z,46.20
2019-04-23T15:10:59.670Z,42.63
2019-04-23T15:13:16.802Z,49.13
2019-04-23T15:15:57.080Z,43.07
2019-04-23T15:18:33.115Z,40.37
2019-04-23T15:21:08.547Z,41.67
2019-04-23T15:23:40.690Z,39.03
2019-04-23T15:26:37.297Z,37.97
2019-04-23T15:28:14.580Z,35.40
2019-04-23T15:30:58.707Z,38.50
2019-04-23T15:33:27.110Z,36.50
2019-04-23T15:40:54.612Z,33.40
2019-04-23T15:43:14.673Z,36.00
2019-04-23T15:45:49.438Z,34.10
2019-04-23T15:48:16.206Z,33.10
2019-04-23T15:50:46.153Z,29.63
2019-04-23T15:53:04.690Z,28.37
2019-04-23T15:55:45.425Z,31.20
2019-04-23T15:58:17.463Z,29.13
2019-04-23T16:00:38.749Z,31.10
2019-04-23T16:02:40.776Z,27.70
2019-04-23T16:05:09.397Z,29.03
2019-04-23T16:07:57.986Z,25.37
2019-04-23T16:10:46.145Z,28.37
2019-04-23T16:13:05.825Z,27.60
2019-04-23T16:15:42.093Z,28.47
2019-04-23T16:18:29.813Z,27.70
2019-04-23T16:20:57.358Z,26.63
2019-04-23T16:23:22.306Z,27.70
2019-04-23T16:25:49.824Z,26.43
2019-04-23T16:28:18.928Z,25.00
2019-04-23T16:30:53.665Z,27.60
2019-04-23T16:33:16.364Z,27.10
2019-04-23T16:35:59.978Z,26.27
2019-04-23T16:40:46.088Z,31.50
2019-04-23T16:43:14.008Z,28.87
2019-04-23T16:48:25.907Z,26.97
2019-04-23T16:51:00.825Z,29.00
2019-04-23T16:53:21.588Z,28.33
2019-04-23T16:55:47.526Z,28.17
2019-04-23T16:58:23.164Z,26.40
2019-04-23T17:00:55.890Z,25.63
2019-04-23T17:05:42.842Z,26.57
2019-04-23T17:08:37.393Z,27.03
2019-04-23T17:10:46.904Z,28.10
2019-04-23T17:13:16.212Z,25.33
2019-04-23T17:15:51.023Z,25.90
2019-04-23T17:18:12.040Z,24.70
2019-04-23T17:20:37.573Z,25.10
2019-04-23T17:23:22.200Z,28.37
2019-04-23T17:25:37.569Z,26.10
2019-04-23T17:28:12.727Z,24.23
2019-04-23T17:30:34.191Z,30.07
2019-04-23T17:36:07.358Z,27.90
2019-04-23T17:41:07.067Z,29.47
2019-04-23T17:43:33.223Z,32.50
2019-04-23T17:45:56.638Z,29.47
2019-04-23T17:48:32.586Z,33.13
2019-04-23T17:51:04.192Z,29.67
2019-04-23T17:53:29.742Z,29.07
2019-04-23T17:56:15.274Z,32.53
2019-04-23T17:58:31.697Z,29.17
2019-04-23T18:01:17.269Z,36.27
2019-04-23T18:03:41.423Z,39.30
2019-04-23T18:06:19.555Z,36.33
2019-04-23T18:08:27.127Z,34.77
2019-04-23T18:13:31.153Z,36.67
2019-04-23T18:16:03.623Z,37.33
2019-04-23T18:18:31.004Z,39.30
2019-04-23T18:21:27.266Z,39.73
2019-04-23T18:24:12.841Z,40.67
2019-04-23T18:26:27.684Z,37.57
2019-04-23T18:29:08.473Z,36.70
2019-04-23T18:31:34.598Z,38.33
2019-04-23T18:36:25.439Z,36.87
2019-04-23T18:38:59.633Z,39.63
2019-04-23T18:41:29.596Z,39.87
2019-04-23T18:44:05.982Z,42.33
2019-04-23T18:46:35.456Z,41.40
2019-04-23T18:49:09.461Z,45.27
2019-04-23T18:51:29.212Z,44.67
2019-04-23T19:01:28.012Z,54.80
2019-04-23T19:11:46.126Z,48.77
2019-04-23T19:13:58.018Z,46.93
2019-04-23T19:16:31.639Z,45.80
2019-04-23T19:19:04.851Z,44.87
2019-04-23T19:21:47.348Z,49.57
2019-04-23T19:23:54.713Z,48.10
2019-04-23T19:26:55.356Z,53.10
2019-04-23T19:28:56.118Z,49.47
2019-04-23T19:31:40.158Z,53.00
2019-04-23T19:34:22.777Z,48.10
2019-04-23T19:39:11.522Z,52.97
2019-04-23T19:41:54.099Z,53.17
2019-04-23T19:44:01.228Z,55.97
2019-04-23T19:49:21.432Z,51.57
2019-04-23T19:51:35.967Z,51.93
2019-04-23T19:54:09.546Z,49.30
2019-04-23T19:56:37.731Z,51.57
2019-04-23T19:58:56.679Z,49.90
2019-04-23T20:03:57.874Z,57.10
2019-04-23T20:06:53.676Z,51.20
2019-04-23T20:09:15.809Z,46.80
2019-04-23T20:11:38.068Z,49.40
2019-04-23T20:16:29.929Z,56.50
2019-04-23T20:21:25.207Z,61.43
2019-04-23T20:24:04.358Z,61.37
2019-04-23T20:32:56.859Z,62.87
2019-04-23T20:34:39.214Z,72.50
2019-04-23T20:36:49.300Z,64.03
2019-04-23T20:39:33.294Z,63.33
2019-04-23T20:44:33.571Z,74.70
2019-04-23T20:47:00.254Z,63.43
2019-04-23T20:49:28.735Z,69.60
2019-04-23T20:52:00.625Z,71.37
2019-04-23T20:54:36.223Z,71.07
2019-04-23T20:57:03.781Z,70.47
2019-04-23T20:59:29.887Z,70.57
2019-04-23T21:02:09.667Z,68.87
2019-04-23T21:04:33.059Z,61.70
2019-04-23T21:07:02.592Z,59.90
2019-04-23T21:09:48.989Z,65.37
2019-04-23T21:11:54.863Z,66.43
2019-04-23T21:14:39.755Z,63.37
2019-04-23T21:16:50.968Z,69.80
2019-04-23T21:22:09.563Z,62.87
2019-04-23T21:24:37.632Z,58.07
2019-04-23T21:27:20.327Z,63.97
2019-04-23T21:29:57.014Z,63.07
2019-04-23T21:32:14.028Z,64.87
2019-04-23T21:34:47.058Z,65.57
2019-04-23T21:37:11.424Z,62.47
2019-04-23T21:42:20.816Z,64.70
2019-04-23T21:44:47.643Z,63.00
2019-04-23T21:47:09.951Z,64.50
2019-04-23T21:49:57.996Z,59.07
2019-04-23T21:52:13.427Z,61.23
2019-04-23T21:54:42.946Z,63.20
2019-04-23T21:57:12.175Z,68.80
2019-04-23T21:59:49.217Z,64.53
2019-04-23T22:02:13.093Z,63.27
2019-04-23T22:07:27.324Z,56.33
2019-04-23T22:14:40.554Z,60.43
2019-04-23T22:17:03.214Z,65.50
2019-04-23T22:19:29.560Z,65.87
2019-04-23T22:21:57.463Z,61.47
2019-04-23T22:24:25.493Z,57.87
2019-04-23T22:26:58.186Z,62.20
2019-04-23T22:29:33.022Z,54.87
2019-04-23T22:34:33.927Z,64.97
2019-04-23T22:37:10.929Z,66.33
2019-04-23T22:39:32.039Z,57.67
2019-04-23T22:42:03.264Z,61.73
2019-04-23T22:44:30.909Z,69.20
2019-04-23T22:49:45.243Z,64.60
2019-04-23T22:52:06.605Z,64.97
2019-04-23T22:54:21.147Z,64.57
2019-04-23T22:56:55.004Z,61.83
2019-04-23T22:59:34.217Z,63.87
2019-04-23T23:02:00.360Z,60.73
2019-04-23T23:04:28.532Z,61.03
2019-04-23T23:09:25.957Z,62.60
2019-04-23T23:11:57.871Z,60.07
2019-04-23T23:14:22.382Z,63.50
2019-04-23T23:16:50.430Z,64.50
2019-04-23T23:19:28.268Z,64.57
2019-04-23T23:21:58.217Z,63.10
2019-04-23T23:24:15.361Z,66.90
2019-04-23T23:26:57.396Z,72.10
2019-04-23T23:29:16.109Z,65.30
2019-04-23T23:31:51.926Z,63.83
2019-04-23T23:34:15.615Z,67.20
2019-04-23T23:36:48.039Z,62.43
2019-04-23T23:39:16.031Z,63.90
2019-04-23T23:41:40.469Z,65.80
2019-04-23T23:44:27.694Z,61.20
2019-04-23T23:49:13.733Z,63.63
2019-04-23T23:51:40.071Z,66.43
2019-04-23T23:56:58.166Z,61.57
2019-04-23T23:59:12.857Z,66.57
